Time;durP1;ratioP1;P1;durP2;ratioP2;P2;SDS_P1;SDS_P2;PMS_P1;PMS_P2;Temp;Humidity;BMP_temperature;BMP_pressure;BME280_temperature;BME280_humidity;BME280_pressure;Samples;Min_cycle;Max_cycle;Signal;HPM_P1;HPM_P2
2022/05/26 00:01:17;;;;;;;;;1.33;0.00;;;;;18.71;50.54;101720.03;5054061;28;45423;-83
2022/05/26 00:03:45;;;;;;;;;0.00;0.00;;;;;19.12;50.28;101789.53;5038528;28;46213;-82
2022/05/26 00:07:02;;;;;;;;;0.00;0.00;;;;;19.79;50.63;101906.97;5040688;28;45423;-84
2022/05/26 00:09:28;;;;;;;;;0.00;0.00;;;;;19.16;50.89;101820.81;5041202;28;45454;-84
2022/05/26 00:11:53;;;;;;;;;0.00;0.00;;;;;19.70;50.99;101909.41;5035713;28;45518;-83
2022/05/26 00:14:39;;;;;;;;;0.67;0.67;;;;;19.29;50.94;101850.63;5023697;28;48287;-84
2022/05/26 00:17:05;;;;;;;;;0.00;0.00;;;;;19.16;51.34;101843.31;5050457;28;45340;-84
2022/05/26 00:19:30;;;;;;;;;0.00;0.00;;;;;18.96;51.52;101801.31;5036302;28;45492;-84
2022/05/26 00:21:58;;;;;;;;;1.00;0.00;;;;;19.06;51.64;101831.34;5041459;28;45375;-84
2022/05/26 00:24:56;;;;;;;;;2.00;0.00;;;;;19.07;51.22;101824.09;5040656;28;46454;-84
2022/05/26 00:27:21;;;;;;;;;0.67;0.67;;;;;19.07;51.74;101830.38;5034046;28;45581;-83
2022/05/26 00:29:47;;;;;;;;;1.00;0.00;;;;;19.54;51.28;101922.97;5045520;28;45309;-84
2022/05/26 00:32:12;;;;;;;;;0.00;0.00;;;;;19.23;51.23;101868.13;5050613;28;45402;-84
2022/05/26 00:34:38;;;;;;;;;2.00;1.00;;;;;18.55;51.52;101757.91;5037153;28;45736;-83
2022/05/26 00:37:31;;;;;;;;;1.00;0.00;;;;;19.51;51.33;101925.88;5038903;28;45529;-83
2022/05/26 00:39:56;;;;;;;;;1.00;1.00;;;;;19.06;51.09;101835.84;5048558;28;45517;-84
2022/05/26 00:42:21;;;;;;;;;0.00;0.00;;;;;19.50;50.72;101930.44;5040543;28;45550;-84
2022/05/26 00:47:44;;;;;;;;;0.00;0.00;;;;;19.55;50.71;101924.69;5000453;28;45641;-83
2022/05/26 00:50:37;;;;;;;;;0.00;0.00;;;;;18.83;50.82;101813.84;4995721;28;45584;-85
2022/05/26 00:53:15;;;;;;;;;0.00;0.00;;;;;18.88;50.55;101816.25;4995212;28;45585;-85
2022/05/26 00:56:13;;;;;;;;;2.00;0.00;;;;;19.11;50.81;101858.09;4991858;28;45880;-84
2022/05/26 00:58:44;;;;;;;;;2.00;0.00;;;;;18.59;50.92;101780.19;4981620;28;45562;-83
2022/05/26 01:01:11;;;;;;;;;0.00;0.00;;;;;19.44;50.98;101930.81;4994803;28;45558;-84
2022/05/26 01:03:42;;;;;;;;;0.67;0.67;;;;;19.45;50.70;101937.06;5000139;28;45532;-85
2022/05/26 01:06:16;;;;;;;;;0.00;0.00;;;;;18.56;51.63;101786.66;5003105;28;45440;-84
2022/05/26 01:08:49;;;;;;;;;0.00;0.00;;;;;19.39;51.46;101911.31;4996006;28;45716;-83
2022/05/26 01:11:15;;;;;;;;;0.00;0.00;;;;;19.07;51.40;101878.16;5004688;28;45504;-84
2022/05/26 01:13:47;;;;;;;;;1.00;0.00;;;;;19.26;51.91;101903.06;5013565;28;45480;-85
2022/05/26 01:16:30;;;;;;;;;0.00;0.00;;;;;19.39;51.59;101944.59;5000891;28;46960;-84
2022/05/26 01:19:18;;;;;;;;;0.00;0.00;;;;;19.39;52.26;101938.34;5012376;28;45535;-84
2022/05/26 01:22:18;;;;;;;;;0.67;0.00;;;;;19.38;52.17;101923.06;5003650;28;45446;-85
2022/05/26 01:25:19;;;;;;;;;0.00;0.00;;;;;19.42;55.08;101945.38;5032295;22;45555;-84
2022/05/26 01:28:08;;;;;;;;;0.00;0.00;;;;;19.12;56.52;101894.94;5027120;28;46274;-84
2022/05/26 01:30:50;;;;;;;;;1.00;0.00;;;;;19.37;56.16;101940.25;5274126;22;45587;-84
2022/05/26 01:33:42;;;;;;;;;1.67;0.00;;;;;19.29;56.48;101935.34;5041720;22;45431;-84
2022/05/26 01:39:40;;;;;;;;;0.00;0.00;;;;;18.73;56.59;101859.44;5025721;28;45330;-84
2022/05/26 01:42:37;;;;;;;;;0.00;0.00;;;;;18.23;56.30;101778.75;5024910;28;45678;-85
2022/05/26 01:45:17;;;;;;;;;0.00;0.00;;;;;18.79;56.03;101871.72;5024429;28;45472;-85
2022/05/26 01:48:25;;;;;;;;;2.00;0.33;;;;;19.22;55.92;101946.59;5024782;28;45411;-84
2022/05/26 01:50:57;;;;;;;;;0.00;0.00;;;;;18.46;55.59;101812.47;5025863;28;45500;-84
2022/05/26 01:53:36;;;;;;;;;0.00;0.00;;;;;18.80;55.96;101869.88;5032873;28;45653;-84
2022/05/26 01:56:56;;;;;;;;;0.00;0.00;;;;;19.21;55.86;101943.03;5025296;28;45409;-85
2022/05/26 01:59:27;;;;;;;;;1.00;1.00;;;;;19.15;56.46;101941.59;5204691;22;45807;-85
2022/05/26 02:02:35;;;;;;;;;0.00;0.00;;;;;18.50;55.94;101830.22;5024160;28;47480;-85
2022/05/26 02:05:03;;;;;;;;;2.00;0.00;;;;;18.47;55.97;101825.88;5014996;28;45484;-84
2022/05/26 02:07:44;;;;;;;;;1.33;0.00;;;;;18.79;56.18;101895.16;5021553;28;45809;-84
2022/05/26 02:10:25;;;;;;;;;0.00;0.00;;;;;19.12;55.85;101946.28;5036317;28;45577;-84
2022/05/26 02:19:46;;;;;;;;;0.33;0.33;;;;;18.26;56.15;101814.53;5018869;28;45732;-84
2022/05/26 02:33:37;;;;;;;;;1.00;0.00;;;;;18.41;56.17;101837.03;5026788;28;46036;-85
2022/05/26 02:36:03;;;;;;;;;0.00;0.00;;;;;19.03;56.98;101946.84;5024806;28;45826;-84
2022/05/26 02:38:28;;;;;;;;;0.00;0.00;;;;;19.16;59.72;101955.97;5021514;28;45359;-84
2022/05/26 02:40:54;;;;;;;;;0.00;0.00;;;;;18.63;60.95;101896.03;5021328;28;45580;-83
2022/05/26 02:43:28;;;;;;;;;0.00;0.00;;;;;19.14;60.24;101968.69;5019219;28;45349;-84
2022/05/26 02:46:09;;;;;;;;;0.00;0.00;;;;;18.52;60.40;101876.91;5022598;28;46458;-84
2022/05/26 02:49:22;;;;;;;;;0.00;0.00;;;;;19.03;60.71;101974.72;5016615;28;45630;-84
2022/05/26 02:52:31;;;;;;;;;0.33;0.33;;;;;19.02;61.36;101972.13;4959838;28;45676;-83
2022/05/26 02:55:41;;;;;;;;;0.00;0.00;;;;;17.87;62.52;101778.13;4968679;28;45638;-84
2022/05/26 02:58:31;;;;;;;;;0.00;0.00;;;;;18.96;61.70;101968.84;4930554;28;46659;-84
2022/05/26 03:01:06;;;;;;;;;0.00;0.00;;;;;18.95;62.65;101961.69;4929423;28;45488;-84
2022/05/26 03:03:46;;;;;;;;;0.00;0.00;;;;;18.75;62.32;101929.53;4905535;28;45454;-84
2022/05/26 03:06:28;;;;;;;;;0.00;0.00;;;;;18.89;62.65;101958.47;4921596;28;45601;-84
2022/05/26 03:08:55;;;;;;;;;0.67;0.00;;;;;18.87;62.76;101977.50;4921569;28;46592;-83
2022/05/26 03:11:24;;;;;;;;;0.00;0.00;;;;;18.85;62.97;101974.00;4921662;28;45651;-84
2022/05/26 03:13:50;;;;;;;;;3.67;0.00;;;;;18.56;63.30;101916.25;5103813;22;45704;-84
2022/05/26 03:16:17;;;;;;;;;0.00;0.00;;;;;18.79;64.02;101973.50;5037120;28;45621;-83
2022/05/26 03:19:03;;;;;;;;;0.00;0.00;;;;;18.54;64.08;101934.38;5042208;28;45577;-85
2022/05/26 03:21:28;;;;;;;;;1.33;0.00;;;;;17.68;63.78;101791.75;5040142;28;45499;-84
2022/05/26 03:23:53;;;;;;;;;0.00;0.00;;;;;18.31;64.27;101897.94;5040312;28;45332;-84
2022/05/26 03:26:19;;;;;;;;;0.00;0.00;;;;;17.83;63.66;101833.19;5020664;28;45628;-84
2022/05/26 03:28:44;;;;;;;;;0.00;0.00;;;;;17.99;64.83;101843.13;5032102;28;47615;-83
2022/05/26 03:31:11;;;;;;;;;0.00;0.00;;;;;18.65;63.87;101958.06;5038528;28;45380;-83
2022/05/26 03:41:50;;;;;;;;;0.00;0.00;;;;;18.48;63.49;101959.03;5039527;28;45351;-84
2022/05/26 03:44:16;;;;;;;;;0.00;0.00;;;;;18.50;64.29;101973.31;5039592;28;45438;-84
2022/05/26 03:46:41;;;;;;;;;0.00;0.00;;;;;18.17;63.84;101920.31;5037325;28;45557;-84
2022/05/26 03:49:06;;;;;;;;;0.00;0.00;;;;;18.32;63.97;101951.81;5038614;28;46075;-85
2022/05/26 03:51:32;;;;;;;;;0.00;0.00;;;;;18.15;63.75;101922.22;5052848;28;45769;-84
2022/05/26 03:53:58;;;;;;;;;1.00;0.00;;;;;18.37;63.84;101967.75;5043428;28;45439;-85
2022/05/26 03:56:23;;;;;;;;;1.00;0.00;;;;;18.47;64.45;101997.78;5038423;28;45442;-83
2022/05/26 03:58:48;;;;;;;;;1.00;0.00;;;;;18.31;64.58;101981.59;5049348;28;48034;-84
2022/05/26 04:01:14;;;;;;;;;1.00;0.00;;;;;18.18;64.88;101949.03;5037408;28;45407;-84
2022/05/26 04:03:40;;;;;;;;;0.00;0.00;;;;;18.39;64.79;101975.75;5021613;28;45431;-83
2022/05/26 04:06:05;;;;;;;;;0.00;0.00;;;;;18.17;65.25;101941.00;5039329;28;45431;-84
2022/05/26 04:08:31;;;;;;;;;0.00;0.00;;;;;18.35;64.62;101981.34;5044997;28;45786;-84
2022/05/26 04:10:57;;;;;;;;;0.00;0.00;;;;;18.46;64.40;102002.31;5038686;28;45559;-84
2022/05/26 04:13:23;;;;;;;;;0.00;0.00;;;;;18.47;64.38;102005.88;5035326;28;45643;-82
2022/05/26 04:15:48;;;;;;;;;0.67;0.00;;;;;18.42;64.24;102008.84;5041434;28;45470;-84
2022/05/26 04:18:14;;;;;;;;;1.00;1.00;;;;;18.43;64.39;102012.44;5037362;28;46903;-84
2022/05/26 04:23:53;;;;;;;;;0.00;0.00;;;;;18.45;63.95;102007.78;5230002;22;45511;-84
2022/05/26 04:26:20;;;;;;;;;0.00;0.00;;;;;18.45;64.60;102021.28;5056465;28;46295;-85
2022/05/26 04:28:45;;;;;;;;;0.33;0.00;;;;;18.41;63.65;102017.91;5055726;28;45581;-85
2022/05/26 04:31:11;;;;;;;;;1.00;1.00;;;;;18.05;63.94;101947.97;5054565;28;45429;-84
2022/05/26 04:33:36;;;;;;;;;0.67;0.67;;;;;18.32;63.62;102007.63;5056492;28;45530;-84
2022/05/26 04:42:44;;;;;;;;;0.00;0.00;;;;;17.71;63.01;101894.03;5050143;28;45566;-85
2022/05/26 04:45:52;;;;;;;;;0.00;0.00;;;;;17.35;63.18;101850.22;5046198;28;45494;-85
2022/05/26 05:02:15;;;;;;;;;0.00;0.00;;;;;18.04;62.26;101979.47;4943000;28;45675;-84
2022/05/26 05:10:36;;;;;;;;;0.00;0.00;;;;;17.82;61.17;101943.88;4999950;28;45372;-85
2022/05/26 05:13:26;;;;;;;;;0.67;0.00;;;;;18.52;61.59;102047.88;5000233;28;45481;-86
2022/05/26 05:16:27;;;;;;;;;0.00;0.00;;;;;17.35;61.78;101850.22;5015612;28;46373;-86
2022/05/26 05:23:19;;;;;;;;;0.67;0.67;;;;;17.91;61.34;101949.63;4931857;28;45518;-85
2022/05/26 05:40:18;;;;;;;;;0.00;0.00;;;;;18.69;60.49;102060.41;5052008;28;45723;-86
2022/05/26 05:46:06;;;;;;;;;0.00;0.00;;;;;18.69;60.37;102060.41;5051365;28;45498;-85
2022/05/26 05:48:56;;;;;;;;;2.00;1.00;;;;;18.73;60.17;102075.50;5035780;28;45647;-85
2022/05/26 05:51:21;;;;;;;;;0.00;0.00;;;;;17.59;59.63;101883.94;5053473;28;46248;-86
2022/05/26 05:53:47;;;;;;;;;0.00;0.00;;;;;18.21;60.37;101978.53;5056529;28;45765;-86
2022/05/26 05:59:34;;;;;;;;;0.00;0.00;;;;;18.82;60.07;102087.63;5047500;28;45416;-86
2022/05/26 06:02:00;;;;;;;;;4.00;2.00;;;;;17.71;59.28;101893.19;5051608;28;46556;-86
2022/05/26 06:04:25;;;;;;;;;0.00;0.00;;;;;18.44;59.25;102027.66;5055528;28;45406;-86
2022/05/26 06:17:25;;;;;;;;;2.33;2.33;;;;;19.05;58.58;102105.22;5037483;28;45502;-86
2022/05/26 06:23:42;;;;;;;;;0.33;0.00;;;;;19.10;60.18;102113.94;5015996;28;45497;-87
2022/05/26 06:26:24;;;;;;;;;6.00;1.67;;;;;18.70;59.78;102050.47;5015012;28;46943;-85
2022/05/26 06:31:37;;;;;;;;;0.67;0.00;;;;;18.54;59.18;102001.88;5010417;28;45616;-85
2022/05/26 06:39:31;;;;;;;;;0.33;0.00;;;;;19.47;57.96;102124.44;5014404;28;45499;-85
2022/05/26 06:42:06;;;;;;;;;0.00;0.00;;;;;18.42;57.51;101938.66;4998385;28;45423;-84
2022/05/26 06:44:47;;;;;;;;;0.00;0.00;;;;;18.81;57.19;102012.97;5015104;28;45642;-85
2022/05/26 06:47:17;;;;;;;;;6.33;2.00;;;;;19.19;57.49;102066.59;5014772;28;46190;-83
2022/05/26 06:49:42;;;;;;;;;42.33;31.00;;;;;19.20;57.19;102060.22;5014736;28;45436;-83
2022/05/26 06:52:10;;;;;;;;;16.67;15.00;;;;;19.62;57.61;102142.47;5014534;28;45539;-84
2022/05/26 06:54:39;;;;;;;;;0.00;0.00;;;;;19.53;58.37;102138.47;5014510;28;46260;-84
2022/05/26 06:57:06;;;;;;;;;2.00;0.00;;;;;18.75;58.21;102013.28;5028639;28;46866;-84
2022/05/26 06:59:32;;;;;;;;;14.33;7.00;;;;;19.50;58.08;102154.91;5046937;28;45615;-83
2022/05/26 07:01:57;;;;;;;;;0.00;0.00;;;;;19.31;59.84;102133.44;5035024;28;45604;-83
2022/05/26 07:04:23;;;;;;;;;3.33;1.67;;;;;18.91;59.62;102060.09;5036814;28;45382;-83
2022/05/26 07:07:01;;;;;;;;;1.00;1.00;;;;;18.99;59.68;102089.38;5036754;28;46190;-83
2022/05/26 07:09:27;;;;;;;;;1.00;0.00;;;;;19.33;61.21;102130.66;5035780;28;45613;-83
2022/05/26 07:11:53;;;;;;;;;0.33;0.00;;;;;19.50;60.77;102162.09;5036229;28;45504;-83
2022/05/26 07:14:19;;;;;;;;;0.00;0.00;;;;;19.54;60.89;102150.16;5035763;28;45545;-83
2022/05/26 07:16:45;;;;;;;;;49.67;33.00;;;;;19.62;59.58;102161.41;5016622;28;46526;-84
2022/05/26 07:19:15;;;;;;;;;0.00;0.00;;;;;19.48;58.90;102139.69;5035775;28;45483;-84
2022/05/26 07:21:43;;;;;;;;;0.00;0.00;;;;;19.51;58.93;102131.41;5035182;28;45569;-83
2022/05/26 07:24:09;;;;;;;;;2.67;0.00;;;;;19.51;59.12;102145.81;5036182;28;45556;-83
2022/05/26 07:26:35;;;;;;;;;0.00;0.00;;;;;19.44;58.92;102122.78;5035196;28;45622;-81
2022/05/26 07:29:00;;;;;;;;;4.00;0.00;;;;;19.79;58.67;102161.28;5035461;28;45482;-82
2022/05/26 07:31:29;;;;;;;;;54.33;33.00;;;;;19.49;57.61;102101.75;5031986;28;46550;-84
2022/05/26 07:33:55;;;;;;;;;0.67;0.67;;;;;19.90;56.88;102168.78;5029942;28;45652;-83
2022/05/26 07:41:54;;;;;;;;;0.00;0.00;;;;;19.66;60.55;102184.59;5030188;28;45468;-82
2022/05/26 07:44:19;;;;;;;;;1.00;1.00;;;;;19.60;60.04;102188.53;5035361;28;45518;-85
2022/05/26 07:46:46;;;;;;;;;2.67;2.33;;;;;19.17;60.51;102123.47;5036438;28;47416;-84
2022/05/26 07:49:12;;;;;;;;;4.33;2.00;;;;;19.65;60.72;102209.91;5028120;28;45406;-84
2022/05/26 07:51:38;;;;;;;;;2.33;2.00;;;;;19.45;61.10;102180.44;5023860;28;45344;-83
2022/05/26 07:54:03;;;;;;;;;3.00;3.00;;;;;19.04;59.40;102117.00;5025198;28;48118;-84
2022/05/26 07:56:33;;;;;;;;;1.67;1.00;;;;;19.48;60.85;102204.59;5027961;28;45547;-83
2022/05/26 07:58:58;;;;;;;;;1.00;1.00;;;;;19.31;60.27;102155.06;5035983;28;45445;-82
2022/05/26 08:02:12;;;;;;;;;2.00;2.00;;;;;19.73;59.60;102218.47;5027533;28;45607;-88
2022/05/26 08:04:38;;;;;;;;;2.00;2.00;;;;;19.07;59.54;102114.13;4992553;28;45508;-82
2022/05/26 08:07:04;;;;;;;;;2.00;2.00;;;;;19.06;59.79;102114.19;5000482;28;46140;-86
2022/05/26 08:09:29;;;;;;;;;2.00;2.00;;;;;18.92;59.37;102093.41;5004142;28;45945;-84
2022/05/26 08:11:54;;;;;;;;;1.67;1.67;;;;;19.69;59.44;102222.34;4989694;28;46105;-80
2022/05/26 08:14:20;;;;;;;;;1.00;1.00;;;;;19.02;59.40;102099.16;4993800;28;45463;-81
2022/05/26 08:16:45;;;;;;;;;4.00;4.00;;;;;19.11;58.85;102104.00;4993241;28;45399;-83
2022/05/26 08:19:11;;;;;;;;;5.00;3.67;;;;;19.38;58.86;102144.78;4993796;28;45601;-82
2022/05/26 08:21:36;;;;;;;;;13.33;9.00;;;;;19.44;58.91;102151.66;4994472;28;45672;-82
2022/05/26 08:24:02;;;;;;;;;1.33;1.33;;;;;19.79;58.10;102209.13;4994291;28;45469;-85
2022/05/26 08:26:31;;;;;;;;;21.00;9.67;;;;;19.48;58.01;102155.91;4993498;28;45709;-87
2022/05/26 08:28:57;;;;;;;;;3.33;2.33;;;;;19.56;57.77;102159.91;4991827;28;45562;-84
2022/05/26 08:31:24;;;;;;;;;3.00;2.00;;;;;20.06;56.85;102236.38;5146086;22;45439;-85
2022/05/26 08:33:53;;;;;;;;;2.00;2.00;;;;;19.90;56.70;102178.72;5036089;28;45683;-89
2022/05/26 08:36:48;;;;;;;;;;;;;;;;;;;;;
2022/05/26 08:39:45;;;;;;;;;3.33;2.00;;;;;20.50;55.91;102207.53;5118391;22;72848;-84
2022/05/26 08:42:17;;;;;;;;;20.33;12.67;;;;;20.74;55.30;102226.84;5034787;28;45484;-81
2022/05/26 08:44:43;;;;;;;;;6.00;3.00;;;;;20.76;53.79;102193.25;5033455;28;45435;-84
2022/05/26 08:47:19;;;;;;;;;23.67;15.33;;;;;20.64;52.89;102140.72;5034673;28;46365;-85
2022/05/26 08:53:04;;;;;;;;;3.00;1.33;;;;;20.48;52.63;102125.50;5171316;22;45704;-90
2022/05/26 08:55:47;;;;;;;;;1.00;1.00;;;;;20.83;52.84;102201.88;5031570;28;45466;-85
2022/05/26 08:58:22;;;;;;;;;4.67;4.00;;;;;20.40;51.46;102126.00;5032736;28;46593;-84
2022/05/26 09:00:50;;;;;;;;;16.67;9.33;;;;;20.95;51.29;102238.16;5032064;28;45509;-84
2022/05/26 09:03:30;;;;;;;;;8.00;5.67;;;;;19.91;51.27;102059.56;5031478;28;49523;-84
2022/05/26 09:06:10;;;;;;;;;1.67;1.67;;;;;21.08;51.55;102241.84;5028657;28;45528;-85
2022/05/26 09:14:50;;;;;;;;;1.00;1.00;;;;;20.13;50.09;102061.78;5031917;28;45429;-87
2022/05/26 09:20:50;;;;;;;;;1.00;1.00;;;;;21.04;49.56;102176.06;5032276;28;46061;-93
2022/05/26 09:24:04;;;;;;;;;2.00;2.00;;;;;21.47;49.15;102218.56;5032905;28;45591;-90
2022/05/26 09:26:29;;;;;;;;;3.00;3.00;;;;;21.27;48.35;102160.16;4991887;28;45605;-85
2022/05/26 09:29:08;;;;;;;;;4.00;2.67;;;;;21.92;48.02;102257.16;4993427;28;45580;-80
2022/05/26 09:36:42;;;;;;;;;2.00;2.00;;;;;21.47;47.16;102202.28;5057040;28;45489;-84
2022/05/26 09:46:22;;;;;;;;;1.33;1.33;;;;;21.50;46.37;102134.22;5300503;22;45468;-85
2022/05/26 09:48:52;;;;;;;;;1.67;1.67;;;;;23.67;45.49;102252.88;5036299;28;45470;-84
2022/05/26 09:51:27;;;;;;;;;3.00;1.00;;;;;24.43;43.14;102204.38;5038083;28;45508;-86
2022/05/26 09:53:55;;;;;;;;;1.00;1.00;;;;;24.72;41.55;102177.50;5053682;22;46166;-87
2022/05/26 09:58:56;;;;;;;;;1.67;1.67;;;;;24.07;40.48;102145.47;5389671;22;45905;-85
2022/05/26 10:05:09;;;;;;;;;1.00;1.00;;;;;24.27;42.00;102277.41;5013653;28;45715;-85
2022/05/26 10:07:55;;;;;;;;;1.00;1.00;;;;;24.12;42.61;102284.94;5015284;28;45301;-85
2022/05/26 10:10:45;;;;;;;;;2.33;2.33;;;;;23.90;43.04;102281.09;5016534;28;45549;-85
2022/05/26 10:19:44;;;;;;;;;6.00;3.67;;;;;24.70;40.81;102271.34;5008400;28;45416;-86
2022/05/26 10:22:58;;;;;;;;;1.00;1.00;;;;;25.20;40.11;102277.34;5008840;28;47101;-86
2022/05/26 10:25:35;;;;;;;;;2.33;2.33;;;;;28.53;34.94;102172.91;5006690;28;45555;-85
2022/05/26 10:31:41;;;;;;;;;1.00;1.00;;;;;27.98;34.11;102223.81;5004341;28;45454;-86
2022/05/26 10:37:27;;;;;;;;;1.00;1.00;;;;;26.38;36.51;102248.28;5038099;22;58129;-87
2022/05/26 10:40:17;;;;;;;;;6.00;4.00;;;;;25.86;38.02;102272.75;5037769;28;46341;-86
2022/05/26 10:43:06;;;;;;;;;0.00;0.00;;;;;27.65;35.59;102273.50;5035917;28;45612;-89
2022/05/26 10:45:38;;;;;;;;;1.00;1.00;;;;;26.39;35.28;102121.53;5035925;28;45524;-84
2022/05/26 10:48:21;;;;;;;;;2.00;2.00;;;;;26.45;36.37;102208.47;5029559;28;45566;-88
2022/05/26 10:50:52;;;;;;;;;1.00;1.00;;;;;27.04;36.03;102274.44;5029157;28;46701;-88
2022/05/26 10:54:11;;;;;;;;;0.00;0.00;;;;;26.69;36.42;102268.38;5039578;28;45694;-91
2022/05/26 10:56:46;;;;;;;;;0.00;0.00;;;;;26.29;36.71;102263.66;5012133;28;45470;-87
2022/05/26 10:59:39;;;;;;;;;0.00;0.00;;;;;26.04;37.27;102272.22;5009368;28;45649;-89
2022/05/26 11:02:29;;;;;;;;;1.33;1.00;;;;;25.60;37.49;102265.88;5009585;28;47258;-87
2022/05/26 11:05:45;;;;;;;;;2.00;2.00;;;;;25.22;38.88;102283.56;5013227;28;45655;-88
2022/05/26 11:08:29;;;;;;;;;7.67;6.00;;;;;24.89;39.28;102287.09;4971580;28;45602;-87
2022/05/26 11:11:20;;;;;;;;;1.00;1.00;;;;;24.39;39.96;102285.50;4975439;28;45631;-90
2022/05/26 11:17:28;;;;;;;;;4.00;1.67;;;;;22.41;42.51;102155.13;4972489;28;45401;-92
2022/05/26 11:20:06;;;;;;;;;6.00;4.67;;;;;23.10;43.58;102265.22;4970044;28;45461;-84
2022/05/26 11:22:33;;;;;;;;;1.67;1.00;;;;;23.19;42.66;102266.41;4973488;28;45463;-89
2022/05/26 11:24:59;;;;;;;;;2.00;2.00;;;;;23.11;42.68;102269.69;4973598;28;45596;-84
2022/05/26 11:27:30;;;;;;;;;13.33;10.00;;;;;23.43;44.07;102276.47;4979778;28;45477;-84
2022/05/26 11:30:03;;;;;;;;;5.00;4.00;;;;;23.63;42.86;102243.19;5011178;28;45549;-89
2022/05/26 11:38:14;;;;;;;;;10.00;5.00;;;;;23.74;42.17;102256.00;5027036;28;45401;-83
2022/05/26 11:41:14;;;;;;;;;3.33;1.00;;;;;23.49;41.86;102197.09;5033363;28;45546;-84
2022/05/26 11:43:39;;;;;;;;;1.33;1.33;;;;;24.11;41.53;102256.78;5013272;28;45830;-86
2022/05/26 11:46:09;;;;;;;;;8.33;6.00;;;;;24.28;40.80;102254.63;5014190;28;47262;-84
2022/05/26 11:51:22;;;;;;;;;1.00;1.00;;;;;24.54;39.91;102250.75;5041578;22;67921;-88
2022/05/26 11:53:48;;;;;;;;;1.33;1.33;;;;;24.49;40.30;102242.09;5036025;28;45486;-88
2022/05/26 11:56:26;;;;;;;;;10.00;4.67;;;;;24.53;39.67;102250.88;5035935;28;45550;-86
2022/05/26 11:59:21;;;;;;;;;28.50;14.50;;;;;24.56;39.42;102256.06;5032326;28;45488;-85
2022/05/26 12:02:37;;;;;;;;;1.00;1.00;;;;;24.66;39.27;102240.75;5034462;28;45605;-88
2022/05/26 12:05:30;;;;;;;;;45.33;30.67;;;;;24.91;39.51;102242.38;5148279;22;45758;-85
2022/05/26 12:07:58;;;;;;;;;1.00;1.00;;;;;24.88;38.92;102207.13;5019043;28;46733;-81
2022/05/26 12:10:28;;;;;;;;;2.00;1.00;;;;;25.19;38.47;102240.13;5018126;28;45439;-81
2022/05/26 12:13:21;;;;;;;;;4.00;1.00;;;;;25.26;38.54;102236.78;5018575;28;45382;-82
2022/05/26 12:16:14;;;;;;;;;0.00;0.00;;;;;24.92;39.02;102240.50;5004058;28;45540;-87
2022/05/26 12:18:49;;;;;;;;;3.67;3.67;;;;;24.93;39.47;102243.09;5016689;28;48037;-86
2022/05/26 12:21:27;;;;;;;;;2.00;1.00;;;;;24.90;39.20;102246.06;5017685;28;45584;-87
2022/05/26 12:23:52;;;;;;;;;1.00;1.00;;;;;24.47;39.14;102188.66;5018854;28;45494;-82
2022/05/26 12:26:25;;;;;;;;;0.67;0.67;;;;;24.15;40.20;102171.13;5003242;28;44998;-86
2022/05/26 12:28:51;;;;;;;;;1.00;1.00;;;;;24.58;40.89;102248.66;5012218;28;46731;-90
2022/05/26 12:31:17;;;;;;;;;29.67;21.67;;;;;24.19;39.94;102183.53;5015959;28;45505;-91
2022/05/26 12:34:10;;;;;;;;;13.00;10.33;;;;;24.51;40.71;102253.72;5016927;28;45379;-90
2022/05/26 12:36:50;;;;;;;;;2.33;1.00;;;;;24.41;40.05;102255.41;5016958;28;45508;-91
2022/05/26 12:39:21;;;;;;;;;0.00;0.00;;;;;24.30;39.80;102245.31;5014356;28;45410;-86
2022/05/26 12:42:00;;;;;;;;;2.00;1.00;;;;;23.79;40.54;102181.19;5015981;28;45626;-90
2022/05/26 12:44:41;;;;;;;;;1.33;1.00;;;;;24.07;41.25;102238.06;5011624;28;45421;-87
2022/05/26 12:47:28;;;;;;;;;3.00;2.00;;;;;23.96;41.65;102236.19;5014743;28;45886;-85
2022/05/26 12:50:18;;;;;;;;;0.00;0.00;;;;;23.77;41.90;102245.78;5014891;28;46313;-92
2022/05/26 12:52:57;;;;;;;;;3.33;1.00;;;;;23.17;42.06;102178.59;5011670;28;45418;-85
2022/05/26 12:55:48;;;;;;;;;19.00;12.67;;;;;23.40;42.35;102214.97;5014406;28;45394;-86
2022/05/26 12:58:23;;;;;;;;;28.67;18.67;;;;;23.34;42.96;102221.75;5015517;28;45707;-85
2022/05/26 13:01:01;;;;;;;;;3.33;1.67;;;;;23.21;41.93;102195.56;5003909;28;47187;-83
2022/05/26 13:03:40;;;;;;;;;8.33;3.67;;;;;23.38;42.00;102230.53;5011454;28;46932;-88
2022/05/26 13:06:27;;;;;;;;;1.67;1.67;;;;;23.41;42.47;102226.72;5012690;28;45427;-86
2022/05/26 13:08:59;;;;;;;;;0.67;0.67;;;;;23.46;42.14;102210.91;5007292;28;45479;-85
2022/05/26 13:11:32;;;;;;;;;0.00;0.00;;;;;23.68;41.53;102224.66;5015457;28;45534;-87
2022/05/26 13:14:06;;;;;;;;;1.00;0.00;;;;;23.67;41.35;102220.19;5014421;28;45557;-85
2022/05/26 13:16:37;;;;;;;;;1.00;1.00;;;;;23.67;41.78;102208.41;5014054;28;45691;-85
2022/05/26 13:19:21;;;;;;;;;1.00;1.00;;;;;23.71;40.93;102209.94;5015060;28;45317;-85
2022/05/26 13:21:52;;;;;;;;;2.00;1.67;;;;;23.83;41.53;102213.59;5012935;28;46024;-84
2022/05/26 13:24:20;;;;;;;;;1.00;1.00;;;;;23.88;40.78;102209.56;5014597;28;45802;-84
2022/05/26 13:26:49;;;;;;;;;11.00;7.33;;;;;23.89;41.08;102208.56;5011322;28;45751;-87
2022/05/26 13:29:18;;;;;;;;;0.67;0.67;;;;;23.70;41.12;102165.50;5009722;28;45763;-84
2022/05/26 13:34:31;;;;;;;;;3.67;1.00;;;;;23.88;40.92;102182.31;5007559;28;45507;-83
2022/05/26 13:37:03;;;;;;;;;1.67;1.00;;;;;23.93;41.07;102203.75;5015192;28;45352;-82
2022/05/26 13:39:29;;;;;;;;;3.33;2.00;;;;;23.94;41.05;102195.44;5016927;28;45673;-80
2022/05/26 13:41:55;;;;;;;;;2.33;0.67;;;;;24.09;40.86;102193.41;5013793;28;45456;-81
2022/05/26 13:44:21;;;;;;;;;1.00;1.00;;;;;24.28;40.79;102198.28;5013181;28;45294;-80
2022/05/26 13:46:49;;;;;;;;;1.33;1.33;;;;;24.31;41.06;102184.41;5013109;28;45579;-81
2022/05/26 13:49:22;;;;;;;;;1.00;1.00;;;;;24.24;40.65;102169.53;5013628;28;45546;-82
2022/05/26 13:51:50;;;;;;;;;1.00;1.00;;;;;24.34;40.65;102164.22;5011665;28;46321;-81
2022/05/26 13:54:41;;;;;;;;;3.00;1.00;;;;;24.47;40.68;102167.75;5013143;28;45582;-81
2022/05/26 13:57:12;;;;;;;;;1.00;1.00;;;;;24.60;40.59;102183.97;5012600;28;45519;-80
2022/05/26 13:59:45;;;;;;;;;2.33;2.00;;;;;24.46;40.13;102162.38;5010335;28;45537;-80
2022/05/26 14:02:23;;;;;;;;;0.00;0.00;;;;;24.39;40.10;102160.13;5012592;28;45552;-81
2022/05/26 14:05:13;;;;;;;;;0.00;0.00;;;;;24.49;39.57;102171.22;5010813;28;45545;-81
2022/05/26 14:07:40;;;;;;;;;0.67;0.67;;;;;24.46;40.68;102174.13;5012609;28;45510;-81
2022/05/26 14:10:14;;;;;;;;;4.00;2.00;;;;;24.44;40.53;102168.81;5016202;28;45539;-89
2022/05/26 14:12:40;;;;;;;;;1.67;1.67;;;;;24.29;40.37;102133.75;5021447;28;46308;-91
2022/05/26 14:15:06;;;;;;;;;1.00;0.00;;;;;24.50;40.24;102161.16;5016387;28;45488;-93
2022/05/26 14:17:34;;;;;;;;;0.00;0.00;;;;;24.52;40.32;102154.59;5015948;28;46505;-92
2022/05/26 14:20:15;;;;;;;;;0.75;0.50;;;;;24.64;40.51;102161.78;5017564;28;45572;-92
2022/05/26 14:22:47;;;;;;;;;2.00;2.00;;;;;24.42;40.05;102118.16;5018504;28;47673;-91
2022/05/26 14:25:22;;;;;;;;;1.67;1.00;;;;;24.50;39.71;102117.56;5004422;28;45981;-90
2022/05/26 14:27:56;;;;;;;;;0.00;0.00;;;;;24.70;39.13;102149.53;5006546;28;45521;-93
2022/05/26 14:30:33;;;;;;;;;0.00;0.00;;;;;24.68;39.30;102153.34;5025398;28;45312;-91
2022/05/26 14:33:30;;;;;;;;;1.00;1.00;;;;;24.72;39.25;102149.38;5009672;28;46990;-90
2022/05/26 14:35:58;;;;;;;;;0.00;0.00;;;;;24.40;38.91;102095.59;5002640;28;47480;-91
2022/05/26 14:38:23;;;;;;;;;0.00;0.00;;;;;24.43;39.03;102087.16;5025771;28;45396;-90
2022/05/26 14:40:49;;;;;;;;;0.33;0.33;;;;;24.44;39.59;102084.31;5022946;28;45483;-91
2022/05/26 14:43:23;;;;;;;;;3.33;1.33;;;;;24.61;39.25;102118.41;5021896;28;46473;-91
2022/05/26 14:45:49;;;;;;;;;2.00;0.00;;;;;24.47;39.46;102090.53;5022892;28;45360;-91
2022/05/26 14:48:14;;;;;;;;;0.00;0.00;;;;;24.69;39.14;102119.66;5021364;28;45379;-90
2022/05/26 14:50:40;;;;;;;;;1.00;1.00;;;;;24.37;39.96;102069.47;5023330;28;45321;-90
2022/05/26 14:53:10;;;;;;;;;0.00;0.00;;;;;24.42;39.44;102088.16;5004841;28;47048;-89
2022/05/26 14:55:38;;;;;;;;;1.00;0.33;;;;;24.56;39.33;102112.47;5001156;28;45515;-90
2022/05/26 14:58:07;;;;;;;;;0.67;0.00;;;;;24.59;39.41;102114.09;5022354;28;45563;-89